Pagrindinis puslapis
METAR-TAF:

METAR-TAF

Oro uostai :

Sianas, Kinija

platuma: 34-26N, ilguma: 108-45E, Aukštis: 479 m

Dabartinis oras

Ataskaita buvo paskelbta 1 valandą ir 0 minutes, ne 15:00 UTC
Vėjas 2 kt iš Vakarų
Temperatūra -5°C
Drėgmė 93%
Slėgis 1024 hPa
Matomumas: 4000 m
rūkana

METAR: ZLXY 271500Z 27001MPS 4000 BR NSC M05/M06 Q1024 NOSIG

Laikas: 00:00 (16:00 UTC)

Prognozė

Ataskaita buvo paskelbta 6 valandos ir 56 minutes, ne 09:04 UTC
Prognozė galioja nuo 27 metu 12 UTC su 28 metu 12 UTC
Vėjas 6 kt iš Vakarų/Pietvakarių
Matomumas: 3000 m
migla
Tapsmas
nuo 27 metu 17 UTC su 27 metu 18 UTC
Matomumas: 2400 m
rūkana
Tapsmas
nuo 28 metu 01 UTC su 28 metu 02 UTC
Matomumas: 3000 m

TAF: ZLXY 270904Z 2712/2812 24003MPS 3000 HZ NSC TX08/2807Z TNM05/2723Z BECMG 2717/2718 2400 BR BECMG 2801/2802 3000

Orai ataskaitas ir orų prognozės (METAR, TAF).

turimą stotys yra geltonos ir raudonos taškus žemėlapyje.

Perkelti pele per norėdami pamatyti stoties vardą.

Tada spustelėkite, norėdami matyti oro stebėjimo ir prognozės.

Norėdami pakeisti žemėlapį: spustelėkite ant žalios mygtukų su juodo kryžiaus žemyn,; žalią mygtuką su brūkšneliu, jei norite nutolinti; arba žalių rodyklių gretimoms žemėlapius.


METAR-TAF: